Blanford, Indiana
Current Conditions -  °F | °C
As of 3:15 PM on Thursday 29 Jan 2015 (Local Time) from KPRG Reporting Station
Overcast Overcast  
Wind Chill: 26°   Ceiling: 2100
Heat Index: 35°   Visibility: 7mi
Dew Point: 32°   Wind: 14mph
Humidity: 88%   Direction: 300°WNW
Pressure: 30.07"   Gusts: 21mph
Location:  39.66°N, 87.52°W
Report Text: KPRG 292015Z AUTO 30012G18KT 7SM OVC021 02/00 A3007 RMK AO2 T00171001
Loading
Personal Weather Stations






























Interactive Weather Map New forecast layout! Learn more

10-Day Weather Forecast

Advertisements
Track Severe Weather on mobile